createdAt,value
2022-08-23T00:00:00.218Z,0
2022-08-23T00:05:09.275Z,0
2022-08-23T00:10:00.185Z,0
2022-08-23T00:15:00.186Z,0
2022-08-23T00:20:00.172Z,0
2022-08-23T00:25:00.177Z,0
2022-08-23T00:30:00.221Z,0
2022-08-23T00:35:00.174Z,0
2022-08-23T00:40:00.423Z,0
2022-08-23T00:45:00.178Z,0
2022-08-23T00:50:00.176Z,0
2022-08-23T00:55:00.176Z,0
2022-08-23T01:00:00.198Z,0
2022-08-23T01:05:00.172Z,0
2022-08-23T01:10:00.172Z,0
2022-08-23T01:15:00.161Z,0
2022-08-23T01:20:00.168Z,0
2022-08-23T01:25:08.299Z,0
2022-08-23T01:30:00.226Z,0
2022-08-23T01:35:00.155Z,0
2022-08-23T01:40:00.331Z,0
2022-08-23T01:45:00.177Z,0
2022-08-23T01:50:00.179Z,0
2022-08-23T01:55:00.162Z,0
2022-08-23T02:00:00.204Z,0
2022-08-23T02:05:00.165Z,0
2022-08-23T02:10:00.171Z,0
2022-08-23T02:15:00.165Z,0
2022-08-23T02:20:00.176Z,0
2022-08-23T02:25:00.173Z,0
2022-08-23T02:30:00.180Z,0
2022-08-23T02:35:04.926Z,0
2022-08-23T02:40:00.316Z,0
2022-08-23T02:45:00.158Z,0
2022-08-23T02:50:00.170Z,0
2022-08-23T02:55:00.156Z,0
2022-08-23T03:00:00.229Z,0
2022-08-23T03:05:00.159Z,0
2022-08-23T03:10:00.183Z,0
2022-08-23T03:15:00.178Z,0
2022-08-23T03:20:00.178Z,0
2022-08-23T03:25:00.178Z,0
2022-08-23T03:30:00.179Z,0
2022-08-23T03:35:00.194Z,0
2022-08-23T03:40:00.318Z,0
2022-08-23T03:45:02.463Z,0
2022-08-23T03:50:00.183Z,0
2022-08-23T03:55:00.170Z,2
2022-08-23T04:00:00.265Z,3
2022-08-23T04:05:00.162Z,5
2022-08-23T04:10:00.187Z,11
2022-08-23T04:15:01.644Z,23
2022-08-23T04:20:00.183Z,50
2022-08-23T04:25:00.166Z,92
2022-08-23T04:30:00.193Z,180
2022-08-23T04:35:00.201Z,273
2022-08-23T04:40:00.293Z,411
2022-08-23T04:45:00.205Z,551
2022-08-23T04:50:00.203Z,698
2022-08-23T04:55:00.182Z,883
2022-08-23T05:00:00.200Z,991
2022-08-23T05:05:00.204Z,1116
2022-08-23T05:10:00.187Z,1254
2022-08-23T05:15:00.177Z,1410
2022-08-23T05:20:00.183Z,1410
2022-08-23T05:25:00.176Z,1585
2022-08-23T05:30:00.240Z,1585
2022-08-23T05:35:00.176Z,1781
2022-08-23T05:40:00.306Z,2002
2022-08-23T05:45:00.223Z,2250
2022-08-23T05:50:00.202Z,2534
2022-08-23T05:55:00.179Z,2848
2022-08-23T06:00:00.231Z,2848
2022-08-23T06:05:00.182Z,3189
2022-08-23T06:10:00.193Z,3189
2022-08-23T06:15:00.196Z,3189
2022-08-23T06:20:00.312Z,3200
2022-08-23T06:25:00.190Z,3200
2022-08-23T06:30:00.195Z,3458
2022-08-23T06:35:15.897Z,3616
2022-08-23T06:40:00.291Z,3616
2022-08-23T06:45:00.194Z,4063
2022-08-23T06:50:00.173Z,4569
2022-08-23T06:55:00.187Z,4569
2022-08-23T07:00:00.226Z,5135
2022-08-23T07:05:00.209Z,5135
2022-08-23T07:10:00.182Z,5694
2022-08-23T07:15:00.169Z,5694
2022-08-23T07:20:00.196Z,5772
2022-08-23T07:25:00.177Z,6087
2022-08-23T07:30:00.235Z,6087
2022-08-23T07:35:00.188Z,5867
2022-08-23T07:40:00.309Z,6431
2022-08-23T07:45:00.198Z,6353
2022-08-23T07:50:00.221Z,5194
2022-08-23T07:55:00.196Z,6252
2022-08-23T08:00:00.213Z,6252
2022-08-23T08:05:00.220Z,6252
2022-08-23T08:10:00.181Z,7142
2022-08-23T08:15:00.176Z,7142
2022-08-23T08:20:00.193Z,6681
2022-08-23T08:25:00.183Z,6681
2022-08-23T08:30:00.224Z,6681
2022-08-23T08:35:00.346Z,6681
2022-08-23T08:40:00.293Z,7468
2022-08-23T08:45:00.200Z,7468
2022-08-23T08:50:00.197Z,8013
2022-08-23T08:55:00.280Z,8013
2022-08-23T09:00:00.255Z,8393
2022-08-23T09:05:00.193Z,8393
2022-08-23T09:10:00.212Z,9200
2022-08-23T09:15:00.203Z,9200
2022-08-23T09:20:00.201Z,8754
2022-08-23T09:25:00.216Z,8754
2022-08-23T09:30:00.282Z,8682
2022-08-23T09:35:00.298Z,9445
2022-08-23T09:40:00.293Z,9445
2022-08-23T09:45:00.193Z,9215
2022-08-23T09:50:00.183Z,9215
2022-08-23T09:55:00.212Z,9215
2022-08-23T10:00:00.237Z,9754
2022-08-23T10:05:00.265Z,10170
2022-08-23T10:10:00.235Z,10382
2022-08-23T10:15:00.259Z,10962
2022-08-23T10:20:00.174Z,11929
2022-08-23T10:25:00.206Z,12106
2022-08-23T10:30:00.195Z,12006
2022-08-23T10:35:00.178Z,14230
2022-08-23T10:40:03.669Z,14754
2022-08-23T10:45:00.179Z,14754
2022-08-23T10:50:00.196Z,16703
2022-08-23T10:55:00.263Z,16703
2022-08-23T11:00:00.240Z,13892
2022-08-23T11:05:00.192Z,16901
2022-08-23T11:10:00.208Z,16581
2022-08-23T11:15:00.190Z,14740
2022-08-23T11:20:00.194Z,14740
2022-08-23T11:25:00.200Z,15410
2022-08-23T11:30:00.195Z,15664
2022-08-23T11:35:00.193Z,15610
2022-08-23T11:40:00.400Z,12365
2022-08-23T11:45:00.224Z,12365
2022-08-23T11:50:00.214Z,12434
2022-08-23T11:55:00.196Z,12130
2022-08-23T12:00:00.245Z,12130
2022-08-23T12:05:00.223Z,16742
2022-08-23T12:10:00.212Z,16364
2022-08-23T12:15:00.178Z,14534
2022-08-23T12:20:00.192Z,14534
2022-08-23T12:25:00.196Z,14534
2022-08-23T12:30:00.205Z,12924
2022-08-23T12:35:00.207Z,11489
2022-08-23T12:40:00.348Z,10051
2022-08-23T12:45:00.202Z,9901
2022-08-23T12:50:00.184Z,10894
2022-08-23T12:55:00.215Z,14531
2022-08-23T13:00:16.442Z,9014
2022-08-23T13:05:00.201Z,9014
2022-08-23T13:10:00.201Z,10174
2022-08-23T13:15:00.192Z,17563
2022-08-23T13:20:00.205Z,9502
2022-08-23T13:25:27.689Z,7499
2022-08-23T13:30:00.204Z,9158
2022-08-23T13:35:00.197Z,7621
2022-08-23T13:40:00.342Z,9434
2022-08-23T13:45:00.206Z,9454
2022-08-23T13:50:00.186Z,9913
2022-08-23T13:55:00.189Z,20040
2022-08-23T14:00:00.445Z,38583
2022-08-23T14:05:00.328Z,21478
2022-08-23T14:10:00.202Z,26816
2022-08-23T14:15:00.223Z,23361
2022-08-23T14:25:00.169Z,41058
2022-08-23T14:30:00.341Z,22527
2022-08-23T14:35:00.197Z,69438
2022-08-23T14:40:00.378Z,70766
2022-08-23T14:45:00.171Z,70766
2022-08-23T14:50:00.391Z,70766
2022-08-23T14:55:00.194Z,70766
2022-08-23T15:00:00.422Z,70766
2022-08-23T15:05:00.198Z,70766
2022-08-23T15:10:00.213Z,70766
2022-08-23T15:15:00.184Z,70766
2022-08-23T15:20:00.200Z,70766
2022-08-23T15:25:00.173Z,70766
2022-08-23T15:30:00.194Z,73114
2022-08-23T15:35:00.206Z,10479
2022-08-23T15:40:00.339Z,9315
2022-08-23T15:45:00.198Z,8285
2022-08-23T15:50:00.225Z,62373
2022-08-23T15:55:00.196Z,69135
2022-08-23T16:00:00.311Z,69135
2022-08-23T16:05:00.195Z,12656
2022-08-23T16:10:00.202Z,11236
2022-08-23T16:15:00.193Z,43591
2022-08-23T16:20:00.189Z,10899
2022-08-23T16:25:00.260Z,16531
2022-08-23T16:30:00.192Z,56438
2022-08-23T16:35:00.222Z,49363
2022-08-23T16:40:00.337Z,9979
2022-08-23T16:45:00.182Z,55654
2022-08-23T16:50:00.221Z,55654
2022-08-23T16:55:00.186Z,55654
2022-08-23T17:00:00.227Z,55654
2022-08-23T17:05:00.187Z,46473
2022-08-23T17:10:00.200Z,46473
2022-08-23T17:15:00.187Z,44035
2022-08-23T17:20:00.205Z,41371
2022-08-23T17:25:00.197Z,40339
2022-08-23T17:30:00.213Z,39156
2022-08-23T17:35:00.213Z,39156
2022-08-23T17:40:00.306Z,32711
2022-08-23T17:45:00.193Z,25948
2022-08-23T17:50:00.189Z,21503
2022-08-23T17:55:00.191Z,5006
2022-08-23T18:00:00.210Z,3936
2022-08-23T18:05:00.306Z,2710
2022-08-23T18:10:00.180Z,1908
2022-08-23T18:15:00.177Z,1507
2022-08-23T18:20:00.188Z,1058
2022-08-23T18:25:00.196Z,941
2022-08-23T18:30:00.189Z,744
2022-08-23T18:35:00.214Z,586
2022-08-23T18:40:00.275Z,413
2022-08-23T18:45:00.186Z,290
2022-08-23T18:50:00.196Z,203
2022-08-23T18:55:00.191Z,126
2022-08-23T19:00:00.221Z,68
2022-08-23T19:05:00.189Z,32
2022-08-23T19:10:00.185Z,14
2022-08-23T19:15:00.166Z,7
2022-08-23T19:20:00.192Z,4
2022-08-23T19:25:00.201Z,3
2022-08-23T19:30:00.206Z,2
2022-08-23T19:35:00.177Z,0
2022-08-23T19:40:00.298Z,0
2022-08-23T19:45:00.167Z,0
2022-08-23T19:50:00.187Z,0
2022-08-23T19:55:05.609Z,0
2022-08-23T20:00:00.261Z,0
2022-08-23T20:05:00.214Z,0
2022-08-23T20:10:00.217Z,0
2022-08-23T20:15:00.169Z,0
2022-08-23T20:20:00.185Z,0
2022-08-23T20:25:00.151Z,0
2022-08-23T20:30:00.252Z,0
2022-08-23T20:35:00.188Z,0
2022-08-23T20:40:00.303Z,0
2022-08-23T20:45:00.181Z,0
2022-08-23T20:50:00.191Z,0
2022-08-23T20:55:00.175Z,0
2022-08-23T21:00:00.192Z,0
2022-08-23T21:05:00.169Z,0
2022-08-23T21:10:00.195Z,0
2022-08-23T21:15:00.182Z,0
2022-08-23T21:20:00.206Z,0
2022-08-23T21:25:00.198Z,0
2022-08-23T21:30:00.228Z,0
2022-08-23T21:35:00.154Z,0
2022-08-23T21:40:00.322Z,0
2022-08-23T21:45:00.178Z,0
2022-08-23T21:50:00.198Z,0
2022-08-23T21:55:00.173Z,0
2022-08-23T22:00:00.259Z,0
2022-08-23T22:05:00.196Z,0
2022-08-23T22:10:00.193Z,0
2022-08-23T22:15:00.179Z,0
2022-08-23T22:20:00.183Z,0
2022-08-23T22:25:00.164Z,0
2022-08-23T22:30:00.186Z,0
2022-08-23T22:35:00.205Z,0
2022-08-23T22:40:00.377Z,0
2022-08-23T22:45:00.187Z,0
2022-08-23T22:50:00.184Z,0
2022-08-23T22:55:00.182Z,0
2022-08-23T23:00:00.216Z,0
2022-08-23T23:05:00.175Z,0
2022-08-23T23:10:00.179Z,0
2022-08-23T23:15:00.177Z,0
2022-08-23T23:20:00.182Z,0
2022-08-23T23:25:00.178Z,0
2022-08-23T23:30:00.180Z,0
2022-08-23T23:35:00.815Z,0
2022-08-23T23:40:00.385Z,0
2022-08-23T23:45:00.186Z,0
2022-08-23T23:50:00.209Z,0
2022-08-23T23:55:00.178Z,0
